createdAt,value
2017-07-28T00:01:46.753Z,79.20
2017-07-28T00:04:15.766Z,79.80
2017-07-28T00:06:45.947Z,79.40
2017-07-28T00:09:16.252Z,79.40
2017-07-28T00:11:46.619Z,79.30
2017-07-28T00:14:16.696Z,79.90
2017-07-28T00:16:47.623Z,79.70
2017-07-28T00:19:15.697Z,79.50
2017-07-28T00:21:43.949Z,79.50
2017-07-28T00:24:14.504Z,79.40
2017-07-28T00:26:43.671Z,79.90
2017-07-28T00:29:11.810Z,79.50
2017-07-28T00:31:42.137Z,79.60
2017-07-28T00:34:10.592Z,79.50
2017-07-28T00:36:40.020Z,79.60
2017-07-28T00:39:09.726Z,79.50
2017-07-28T00:41:37.948Z,79.50
2017-07-28T00:44:06.399Z,79.70
2017-07-28T00:46:34.568Z,79.70
2017-07-28T00:49:03.460Z,79.00
2017-07-28T00:51:33.576Z,79.40
2017-07-28T00:54:01.719Z,79.40
2017-07-28T00:56:31.237Z,80.00
2017-07-28T00:58:59.348Z,80.10
2017-07-28T01:01:27.463Z,79.90
2017-07-28T01:03:55.625Z,80.00
2017-07-28T01:06:24.077Z,79.80
2017-07-28T01:08:52.232Z,79.20
2017-07-28T01:11:21.448Z,78.80
2017-07-28T01:13:49.556Z,78.70
2017-07-28T01:16:17.777Z,79.10
2017-07-28T01:18:46.667Z,78.90
2017-07-28T01:21:14.805Z,78.90
2017-07-28T01:23:42.911Z,78.80
2017-07-28T01:26:11.025Z,78.60
2017-07-28T01:28:39.991Z,78.90
2017-07-28T01:31:08.437Z,78.90
2017-07-28T01:33:36.662Z,79.00
2017-07-28T01:36:05.161Z,78.50
2017-07-28T01:38:33.262Z,79.00
2017-07-28T01:41:01.404Z,77.80
2017-07-28T01:43:29.508Z,78.20
2017-07-28T01:45:57.768Z,78.30
2017-07-28T01:48:25.873Z,78.80
2017-07-28T01:50:54.729Z,78.80
2017-07-28T01:53:22.867Z,78.70
2017-07-28T01:55:50.971Z,78.90
2017-07-28T01:58:19.069Z,78.40
2017-07-28T02:00:47.967Z,78.70
2017-07-28T02:03:17.048Z,79.40
2017-07-28T02:05:45.283Z,79.30
2017-07-28T02:08:13.396Z,79.30
2017-07-28T02:10:42.735Z,79.30
2017-07-28T02:13:10.865Z,79.40
2017-07-28T02:15:39.006Z,79.20
2017-07-28T02:18:07.308Z,79.10
2017-07-28T02:20:35.409Z,79.20
2017-07-28T02:23:04.408Z,79.60
2017-07-28T02:25:32.830Z,79.50
2017-07-28T02:28:01.005Z,79.20
2017-07-28T02:30:29.196Z,79.40
2017-07-28T02:32:57.302Z,79.20
2017-07-28T02:35:26.209Z,79.30
2017-07-28T02:37:54.300Z,79.20
2017-07-28T02:40:22.532Z,79.30
2017-07-28T02:42:50.646Z,79.50
2017-07-28T02:45:18.888Z,78.90
2017-07-28T02:47:47.759Z,78.40
2017-07-28T02:50:15.854Z,78.30
2017-07-28T02:52:43.981Z,78.20
2017-07-28T02:55:12.115Z,77.80
2017-07-28T02:57:40.212Z,77.40
2017-07-28T03:00:08.336Z,78.20
2017-07-28T03:02:37.194Z,77.80
2017-07-28T03:05:05.441Z,77.80
2017-07-28T03:07:33.544Z,77.80
2017-07-28T03:10:01.688Z,77.70
2017-07-28T03:12:29.795Z,77.40
2017-07-28T03:14:57.915Z,77.50
2017-07-28T03:17:26.139Z,77.90
2017-07-28T03:19:54.235Z,78.30
2017-07-28T03:22:23.148Z,77.90
2017-07-28T03:24:51.988Z,78.00
2017-07-28T03:27:20.124Z,77.80
2017-07-28T03:29:48.255Z,77.70
2017-07-28T03:32:16.355Z,77.90
2017-07-28T03:34:44.584Z,77.90
2017-07-28T03:37:12.671Z,77.70
2017-07-28T03:39:41.560Z,78.80
2017-07-28T03:42:09.681Z,78.00
2017-07-28T03:44:37.780Z,78.10
2017-07-28T03:47:05.910Z,78.00
2017-07-28T03:49:34.021Z,77.80
2017-07-28T03:52:02.248Z,77.60
2017-07-28T03:54:30.348Z,77.50
2017-07-28T03:56:58.484Z,77.40
2017-07-28T03:59:27.345Z,77.10
2017-07-28T04:01:55.445Z,77.10
2017-07-28T04:04:24.341Z,77.20
2017-07-28T04:06:53.209Z,76.90
2017-07-28T04:09:21.437Z,76.90
2017-07-28T04:11:49.530Z,76.90
2017-07-28T04:14:17.664Z,77.40
2017-07-28T04:16:45.773Z,77.60
2017-07-28T04:19:13.864Z,77.90
2017-07-28T04:21:43.191Z,77.60
2017-07-28T04:24:12.185Z,76.90
2017-07-28T04:26:40.318Z,76.90
2017-07-28T04:29:08.417Z,77.50
2017-07-28T04:31:37.282Z,76.90
2017-07-28T04:34:05.397Z,77.10
2017-07-28T04:36:34.262Z,77.30
2017-07-28T04:39:02.396Z,77.20
2017-07-28T04:41:30.499Z,76.80
2017-07-28T04:43:58.601Z,76.70
2017-07-28T04:46:26.836Z,76.60
2017-07-28T04:48:54.940Z,76.80
2017-07-28T04:51:23.832Z,77.40
2017-07-28T04:53:52.702Z,77.10
2017-07-28T04:56:20.865Z,77.10
2017-07-28T04:58:48.961Z,77.00
2017-07-28T05:01:17.053Z,77.30
2017-07-28T05:03:45.181Z,77.40
2017-07-28T05:06:13.299Z,77.30
2017-07-28T05:08:41.432Z,77.30
2017-07-28T05:11:09.521Z,77.60
2017-07-28T05:13:38.519Z,77.70
2017-07-28T05:16:07.382Z,76.80
2017-07-28T05:18:35.473Z,76.70
2017-07-28T05:21:04.377Z,78.20
2017-07-28T05:23:32.608Z,77.30
2017-07-28T05:26:00.739Z,78.10
2017-07-28T05:28:28.895Z,77.60
2017-07-28T05:30:57.757Z,77.20
2017-07-28T05:33:25.898Z,77.10
2017-07-28T05:35:54.037Z,77.40
2017-07-28T05:38:22.134Z,78.20
2017-07-28T05:40:50.223Z,79.10
2017-07-28T05:43:18.452Z,78.80
2017-07-28T05:45:47.328Z,76.50
2017-07-28T05:48:15.456Z,76.50
2017-07-28T05:50:43.577Z,76.70
2017-07-28T05:53:12.657Z,76.00
2017-07-28T05:55:40.903Z,76.40
2017-07-28T05:58:09.024Z,76.00
2017-07-28T06:00:38.337Z,75.70
2017-07-28T06:03:06.950Z,77.00
2017-07-28T06:05:35.140Z,76.60
2017-07-28T06:08:03.268Z,75.80
2017-07-28T06:10:31.383Z,76.50
2017-07-28T06:12:59.616Z,75.70
2017-07-28T06:15:28.504Z,75.80
2017-07-28T06:17:57.364Z,75.60
2017-07-28T06:20:25.489Z,75.60
2017-07-28T06:22:54.547Z,75.50
2017-07-28T06:25:24.828Z,76.10
2017-07-28T06:27:52.952Z,75.80
2017-07-28T06:30:21.824Z,75.90
2017-07-28T06:32:50.071Z,75.70
2017-07-28T06:35:18.170Z,74.30
2017-07-28T06:37:46.256Z,74.80
2017-07-28T06:40:14.381Z,73.80
2017-07-28T06:42:42.475Z,74.80
2017-07-28T06:45:10.600Z,73.60
2017-07-28T06:47:38.696Z,73.90
2017-07-28T06:50:06.836Z,74.00
2017-07-28T06:52:35.010Z,74.60
2017-07-28T06:55:03.111Z,74.80
2017-07-28T06:57:31.241Z,75.10
2017-07-28T07:00:00.132Z,73.10
2017-07-28T07:02:29.021Z,73.70
2017-07-28T07:04:57.919Z,74.50
2017-07-28T07:07:26.018Z,74.40
2017-07-28T07:09:54.243Z,72.70
2017-07-28T07:12:22.379Z,73.20
2017-07-28T07:14:50.473Z,72.40
2017-07-28T07:17:18.598Z,71.20
2017-07-28T07:19:46.733Z,72.30
2017-07-28T07:22:14.869Z,73.00
2017-07-28T07:24:42.979Z,72.90
2017-07-28T07:27:11.228Z,69.50
2017-07-28T07:29:39.336Z,70.40
2017-07-28T07:32:08.206Z,70.30
2017-07-28T07:34:36.338Z,70.00
2017-07-28T07:37:04.425Z,70.10
2017-07-28T07:39:32.556Z,70.50
2017-07-28T07:42:01.407Z,71.80
2017-07-28T07:44:29.505Z,71.80
2017-07-28T07:46:57.656Z,72.30
2017-07-28T07:49:25.750Z,70.20
2017-07-28T07:51:54.640Z,68.40
2017-07-28T07:54:23.497Z,65.40
2017-07-28T07:56:51.600Z,65.40
2017-07-28T07:59:20.505Z,65.60
2017-07-28T08:01:48.631Z,65.60
2017-07-28T08:04:16.911Z,64.70
2017-07-28T08:06:45.018Z,66.50
2017-07-28T08:09:13.908Z,64.20
2017-07-28T08:11:42.768Z,62.70
2017-07-28T08:14:10.877Z,62.60
2017-07-28T08:16:39.769Z,64.30
2017-07-28T08:19:07.874Z,64.30
2017-07-28T08:21:36.119Z,62.50
2017-07-28T08:24:04.260Z,64.30
2017-07-28T08:26:32.348Z,65.20
2017-07-28T08:29:01.288Z,61.70
2017-07-28T08:31:29.384Z,61.30
2017-07-28T08:33:57.526Z,62.10
2017-07-28T08:36:25.613Z,62.20
2017-07-28T08:38:53.707Z,60.70
2017-07-28T08:41:21.842Z,62.00
2017-07-28T08:43:50.854Z,63.00
2017-07-28T08:46:19.121Z,62.90
2017-07-28T08:48:47.219Z,62.00
2017-07-28T08:51:15.319Z,63.50
2017-07-28T08:53:43.477Z,63.70
2017-07-28T08:56:11.561Z,64.30
2017-07-28T08:58:40.451Z,64.40
2017-07-28T09:01:08.552Z,64.30
2017-07-28T09:03:36.648Z,61.00
2017-07-28T09:06:04.914Z,61.10
2017-07-28T09:11:41.988Z,59.60
2017-07-28T09:14:10.095Z,60.00
2017-07-28T09:16:38.237Z,60.80
2017-07-28T09:19:06.388Z,60.70
2017-07-28T09:21:34.488Z,61.20
2017-07-28T09:24:02.718Z,61.00
2017-07-28T09:26:30.850Z,60.80
2017-07-28T09:28:58.945Z,60.90
2017-07-28T09:31:27.064Z,62.60
2017-07-28T09:33:55.942Z,63.00
2017-07-28T09:36:24.172Z,63.00
2017-07-28T09:38:52.283Z,63.50
2017-07-28T09:41:20.374Z,62.70
2017-07-28T09:43:49.261Z,63.60
2017-07-28T09:46:18.124Z,63.20
2017-07-28T09:48:46.270Z,63.20
2017-07-28T09:51:14.377Z,62.20
2017-07-28T09:53:42.477Z,62.60
2017-07-28T09:56:10.717Z,63.60
2017-07-28T09:58:38.817Z,62.30
2017-07-28T10:01:07.705Z,59.30
2017-07-28T10:03:36.572Z,59.30
2017-07-28T10:06:04.744Z,59.10
2017-07-28T10:08:32.871Z,59.40
2017-07-28T10:11:00.973Z,58.90
2017-07-28T10:13:29.225Z,61.20
2017-07-28T10:15:57.337Z,60.10
2017-07-28T10:18:25.441Z,60.50
2017-07-28T10:20:53.559Z,60.00
2017-07-28T10:23:21.682Z,59.80
2017-07-28T10:25:49.823Z,62.20
2017-07-28T10:28:17.937Z,56.60
2017-07-28T10:30:46.053Z,58.10
2017-07-28T10:33:15.572Z,57.20
2017-07-28T10:35:43.676Z,55.90
2017-07-28T10:38:11.809Z,55.30
2017-07-28T10:40:39.912Z,56.60
2017-07-28T10:43:08.825Z,56.80
2017-07-28T10:45:36.962Z,56.80
2017-07-28T10:48:05.073Z,57.30
2017-07-28T10:50:33.312Z,56.30
2017-07-28T10:53:01.413Z,55.60
2017-07-28T10:55:29.521Z,56.80
2017-07-28T10:57:57.651Z,57.00
2017-07-28T11:00:25.770Z,56.40
2017-07-28T11:02:54.018Z,57.50
2017-07-28T11:05:22.172Z,57.10
2017-07-28T11:07:50.325Z,53.90
2017-07-28T11:10:18.429Z,54.10
2017-07-28T11:12:46.528Z,51.30
2017-07-28T11:15:14.676Z,54.20
2017-07-28T11:17:42.775Z,51.60
2017-07-28T11:20:10.872Z,51.70
2017-07-28T11:22:39.145Z,51.60
2017-07-28T11:25:07.256Z,50.30
2017-07-28T11:27:36.129Z,50.30
2017-07-28T11:30:04.252Z,50.30
2017-07-28T11:32:32.573Z,51.70
2017-07-28T11:35:01.491Z,50.00
2017-07-28T11:37:29.618Z,49.50
2017-07-28T11:39:57.898Z,52.60
2017-07-28T11:42:27.512Z,51.70
2017-07-28T11:44:55.606Z,51.40
2017-07-28T11:47:23.888Z,51.00
2017-07-28T11:49:52.897Z,51.90
2017-07-28T11:52:21.776Z,52.00
2017-07-28T11:54:50.920Z,50.20
2017-07-28T11:57:19.201Z,51.00
2017-07-28T11:59:47.296Z,50.80
2017-07-28T12:02:15.412Z,51.10
2017-07-28T12:04:43.558Z,50.20
2017-07-28T12:07:11.976Z,48.60
2017-07-28T12:09:40.148Z,48.50
2017-07-28T12:12:08.279Z,50.80
2017-07-28T12:14:37.176Z,50.10
2017-07-28T12:17:05.319Z,50.00
2017-07-28T12:19:33.416Z,48.10
2017-07-28T12:22:01.527Z,48.40
2017-07-28T12:24:30.878Z,49.20
2017-07-28T12:26:59.031Z,49.50
2017-07-28T12:29:27.513Z,49.80
2017-07-28T12:34:26.026Z,48.90
2017-07-28T12:36:54.160Z,48.90
2017-07-28T12:39:22.276Z,47.30
2017-07-28T12:41:50.376Z,48.90
2017-07-28T12:44:18.511Z,48.30
2017-07-28T12:46:46.633Z,47.30
2017-07-28T12:49:14.809Z,46.60
2017-07-28T12:51:42.894Z,46.60
2017-07-28T12:54:11.001Z,48.60
2017-07-28T12:56:39.159Z,49.90
2017-07-28T12:59:07.256Z,47.70
2017-07-28T13:01:35.358Z,49.40
2017-07-28T13:04:04.735Z,48.60
2017-07-28T13:06:32.852Z,47.90
2017-07-28T13:09:00.954Z,47.50
2017-07-28T13:11:29.049Z,46.10
2017-07-28T13:13:57.208Z,46.10
2017-07-28T13:16:25.301Z,45.30
2017-07-28T13:18:53.401Z,43.80
2017-07-28T13:21:21.524Z,43.00
2017-07-28T13:23:49.621Z,45.50
2017-07-28T13:26:17.716Z,45.90
2017-07-28T13:28:45.836Z,44.60
2017-07-28T13:31:13.933Z,46.40
2017-07-28T13:33:42.933Z,46.70
2017-07-28T13:36:11.023Z,46.70
2017-07-28T13:38:39.149Z,45.30
2017-07-28T13:41:07.248Z,45.50
2017-07-28T13:43:35.421Z,46.70
2017-07-28T13:46:03.567Z,44.70
2017-07-28T13:48:31.657Z,47.00
2017-07-28T13:50:59.743Z,48.50
2017-07-28T13:53:27.886Z,46.30
2017-07-28T13:55:56.019Z,46.30
2017-07-28T13:58:24.112Z,44.70
2017-07-28T14:00:52.353Z,44.70
2017-07-28T14:03:20.453Z,47.20
2017-07-28T14:05:48.573Z,44.80
2017-07-28T14:08:16.715Z,46.50
2017-07-28T14:10:44.808Z,44.80
2017-07-28T14:13:13.701Z,47.70
2017-07-28T14:15:41.800Z,48.10
2017-07-28T14:18:09.904Z,44.90
2017-07-28T14:20:38.132Z,43.10
2017-07-28T14:23:06.236Z,44.70
2017-07-28T14:25:34.379Z,45.00
2017-07-28T14:28:02.499Z,45.50
2017-07-28T14:30:30.586Z,44.70
2017-07-28T14:32:58.692Z,42.90
2017-07-28T14:35:26.784Z,44.30
2017-07-28T14:37:55.037Z,43.80
2017-07-28T14:40:23.121Z,44.30
2017-07-28T14:42:51.225Z,47.40
2017-07-28T14:45:19.339Z,46.40
2017-07-28T14:47:47.441Z,44.60
2017-07-28T14:50:16.329Z,45.00
2017-07-28T14:52:44.434Z,45.00
2017-07-28T14:55:12.657Z,46.00
2017-07-28T14:57:41.518Z,47.90
2017-07-28T15:00:09.779Z,47.80
2017-07-28T15:02:37.908Z,46.30
2017-07-28T15:05:06.784Z,46.40
2017-07-28T15:07:36.981Z,46.80
2017-07-28T15:10:05.080Z,46.80
2017-07-28T15:12:33.947Z,43.40
2017-07-28T15:15:02.181Z,43.40
2017-07-28T15:17:30.283Z,43.60
2017-07-28T15:19:58.436Z,46.00
2017-07-28T15:22:26.528Z,46.60
2017-07-28T15:24:54.631Z,45.80
2017-07-28T15:27:22.748Z,45.60
2017-07-28T15:29:50.839Z,46.00
2017-07-28T15:32:18.969Z,46.10
2017-07-28T15:34:47.832Z,44.30
2017-07-28T15:37:16.085Z,44.30
2017-07-28T15:39:44.181Z,46.70
2017-07-28T15:42:12.273Z,45.80
2017-07-28T15:44:41.164Z,47.70
2017-07-28T15:47:10.021Z,48.50
2017-07-28T15:49:38.117Z,48.50
2017-07-28T15:52:06.233Z,47.70
2017-07-28T15:54:34.320Z,46.80
2017-07-28T15:57:02.544Z,46.30
2017-07-28T15:59:30.653Z,44.20
2017-07-28T16:01:58.787Z,45.00
2017-07-28T16:04:26.891Z,45.60
2017-07-28T16:06:55.014Z,46.10
2017-07-28T16:09:23.139Z,45.80
2017-07-28T16:11:51.236Z,45.00
2017-07-28T16:14:19.327Z,45.50
2017-07-28T16:16:47.576Z,44.60
2017-07-28T16:19:15.707Z,44.20
2017-07-28T16:21:43.801Z,44.70
2017-07-28T16:24:11.897Z,43.10
2017-07-28T16:26:40.015Z,43.60
2017-07-28T16:29:08.253Z,44.70
2017-07-28T16:31:36.387Z,46.20
2017-07-28T16:34:04.488Z,45.20
2017-07-28T16:36:32.604Z,45.40
2017-07-28T16:39:01.493Z,45.60
2017-07-28T16:41:29.608Z,45.60
2017-07-28T16:43:57.720Z,45.40
2017-07-28T16:46:25.838Z,44.70
2017-07-28T16:48:53.924Z,45.40
2017-07-28T16:51:22.079Z,45.90
2017-07-28T16:53:50.182Z,47.40
2017-07-28T16:56:18.304Z,47.60
2017-07-28T16:58:47.164Z,46.60
2017-07-28T17:01:15.275Z,47.20
2017-07-28T17:03:45.082Z,46.80
2017-07-28T17:06:13.979Z,47.50
2017-07-28T17:08:42.069Z,47.50
2017-07-28T17:11:10.255Z,49.00
2017-07-28T17:13:38.365Z,49.10
2017-07-28T17:16:10.745Z,48.40
2017-07-28T17:18:41.021Z,49.90
2017-07-28T17:21:09.107Z,49.20
2017-07-28T17:23:37.249Z,47.90
2017-07-28T17:26:07.523Z,49.10
2017-07-28T17:28:39.677Z,48.20
2017-07-28T17:31:09.109Z,49.00
2017-07-28T17:33:38.419Z,49.70
2017-07-28T17:36:07.310Z,49.80
2017-07-28T17:38:36.179Z,50.00
2017-07-28T17:41:05.173Z,50.00
2017-07-28T17:43:33.260Z,49.20
2017-07-28T17:46:01.361Z,50.40
2017-07-28T17:48:29.621Z,51.30
2017-07-28T17:50:57.712Z,51.00
2017-07-28T17:53:25.857Z,50.80
2017-07-28T17:55:54.712Z,49.80
2017-07-28T17:58:24.520Z,50.20
2017-07-28T18:00:52.639Z,50.00
2017-07-28T18:03:20.732Z,50.20
2017-07-28T18:05:49.094Z,50.40
2017-07-28T18:08:17.317Z,50.80
2017-07-28T18:10:45.408Z,50.50
2017-07-28T18:13:14.281Z,51.30
2017-07-28T18:15:42.392Z,51.10
2017-07-28T18:18:10.492Z,51.30
2017-07-28T18:20:38.770Z,51.00
2017-07-28T18:23:09.649Z,51.30
2017-07-28T18:25:41.168Z,51.60
2017-07-28T18:28:14.132Z,50.80
2017-07-28T18:30:44.426Z,51.50
2017-07-28T18:33:14.522Z,52.10
2017-07-28T18:35:46.782Z,52.70
2017-07-28T18:38:16.882Z,52.70
2017-07-28T18:40:45.011Z,52.50
2017-07-28T18:43:14.255Z,52.40
2017-07-28T18:45:42.525Z,52.50
2017-07-28T18:48:11.290Z,52.60
2017-07-28T18:50:41.131Z,52.30
2017-07-28T18:53:10.074Z,52.20
2017-07-28T18:55:41.049Z,52.90
2017-07-28T18:58:12.331Z,52.30
2017-07-28T19:00:42.553Z,52.30
2017-07-28T19:03:14.886Z,52.50
2017-07-28T19:05:45.369Z,52.40
2017-07-28T19:08:15.553Z,52.70
2017-07-28T19:10:46.131Z,52.90
2017-07-28T19:13:15.602Z,53.00
2017-07-28T19:15:46.150Z,53.50
2017-07-28T19:18:16.626Z,53.70
2017-07-28T19:20:46.058Z,53.50
2017-07-28T19:23:16.571Z,54.00
2017-07-28T19:25:48.036Z,53.70
2017-07-28T19:28:19.304Z,53.80
2017-07-28T19:30:50.271Z,54.00
2017-07-28T19:33:18.417Z,53.90
2017-07-28T19:35:46.602Z,53.90
2017-07-28T19:38:16.358Z,54.00
2017-07-28T19:40:47.210Z,54.10
2017-07-28T19:43:17.368Z,54.50
2017-07-28T19:45:47.668Z,54.60
2017-07-28T19:48:17.879Z,54.80
2017-07-28T19:50:49.814Z,54.90
2017-07-28T19:53:18.607Z,54.80
2017-07-28T19:55:48.967Z,54.90
2017-07-28T19:58:17.092Z,55.10
2017-07-28T20:00:46.131Z,55.20
2017-07-28T20:03:14.992Z,55.20
2017-07-28T20:05:45.538Z,55.10
2017-07-28T20:08:15.496Z,55.10
2017-07-28T20:10:47.269Z,55.60
2017-07-28T20:13:17.214Z,55.60
2017-07-28T20:15:46.431Z,55.90
2017-07-28T20:18:15.478Z,56.20
2017-07-28T20:20:45.942Z,56.50
2017-07-28T20:23:14.677Z,56.70
2017-07-28T20:25:45.349Z,56.50
2017-07-28T20:28:15.191Z,56.20
2017-07-28T20:30:46.285Z,56.40
2017-07-28T20:33:18.011Z,56.40
2017-07-28T20:35:47.312Z,56.70
2017-07-28T20:38:17.693Z,57.10
2017-07-28T20:40:48.018Z,57.40
2017-07-28T20:43:17.271Z,57.50
2017-07-28T20:45:47.889Z,57.10
2017-07-28T20:48:18.235Z,57.00
2017-07-28T20:50:48.978Z,57.00
2017-07-28T20:53:19.174Z,57.60
2017-07-28T20:55:51.518Z,57.70
2017-07-28T20:58:23.129Z,57.70
2017-07-28T21:00:54.703Z,57.80
2017-07-28T21:03:23.803Z,57.80
2017-07-28T21:05:53.572Z,57.90
2017-07-28T21:08:26.249Z,58.00
2017-07-28T21:10:56.975Z,57.90
2017-07-28T21:13:28.421Z,58.40
2017-07-28T21:15:59.467Z,58.30
2017-07-28T21:18:29.630Z,58.20
2017-07-28T21:21:00.060Z,58.20
2017-07-28T21:23:30.180Z,58.90
2017-07-28T21:25:59.772Z,58.60
2017-07-28T21:28:30.506Z,59.50
2017-07-28T21:30:59.676Z,58.90
2017-07-28T21:33:31.474Z,59.00
2017-07-28T21:36:01.183Z,58.90
2017-07-28T21:38:31.389Z,59.10
2017-07-28T21:41:02.156Z,59.20
2017-07-28T21:43:30.307Z,59.10
2017-07-28T21:46:00.359Z,59.20
2017-07-28T21:48:28.493Z,59.10
2017-07-28T21:50:57.858Z,59.10
2017-07-28T21:53:26.230Z,59.30
2017-07-28T21:55:57.296Z,59.30
2017-07-28T21:58:29.233Z,59.30
2017-07-28T22:01:00.049Z,59.30
2017-07-28T22:03:28.180Z,59.40
2017-07-28T22:05:56.362Z,59.50
2017-07-28T22:08:25.347Z,59.50
2017-07-28T22:10:53.473Z,59.60
2017-07-28T22:13:22.469Z,59.70
2017-07-28T22:15:54.752Z,59.60
2017-07-28T22:18:23.915Z,59.70
2017-07-28T22:20:54.863Z,59.40
2017-07-28T22:23:25.144Z,59.50
2017-07-28T22:25:53.277Z,59.70
2017-07-28T22:28:21.400Z,59.70
2017-07-28T22:30:49.586Z,59.80
2017-07-28T22:33:19.785Z,60.00
2017-07-28T22:35:48.750Z,59.90
2017-07-28T22:38:19.743Z,59.80
2017-07-28T22:40:51.013Z,59.80
2017-07-28T22:43:22.140Z,60.00
2017-07-28T22:45:52.952Z,60.00
2017-07-28T22:48:24.987Z,60.10
2017-07-28T22:50:57.187Z,60.00
2017-07-28T22:53:29.362Z,60.00
2017-07-28T22:55:58.850Z,60.40
2017-07-28T22:58:28.282Z,60.40
2017-07-28T23:00:58.909Z,60.50
2017-07-28T23:03:27.041Z,60.60
2017-07-28T23:05:55.869Z,60.70
2017-07-28T23:08:27.664Z,60.60
2017-07-28T23:10:59.678Z,61.60
2017-07-28T23:13:30.831Z,60.80
2017-07-28T23:16:02.879Z,61.20
2017-07-28T23:18:33.427Z,61.20
2017-07-28T23:21:02.996Z,61.10
2017-07-28T23:23:34.287Z,61.20
2017-07-28T23:26:04.241Z,61.50
2017-07-28T23:28:33.136Z,61.40
2017-07-28T23:31:01.965Z,61.40
2017-07-28T23:33:34.761Z,61.50
2017-07-28T23:36:06.636Z,61.50
2017-07-28T23:38:36.649Z,61.50
2017-07-28T23:41:07.564Z,61.50
2017-07-28T23:43:39.781Z,61.70
2017-07-28T23:46:09.173Z,61.60
2017-07-28T23:48:38.794Z,61.10
2017-07-28T23:51:09.525Z,61.70
2017-07-28T23:53:38.700Z,61.60
2017-07-28T23:56:08.177Z,61.60
2017-07-28T23:58:36.277Z,61.70
